sensor_id;sensor_type;location;lat;lon;timestamp;temperature;humidity
9329;DHT22;4703;48.748;19.142;2023-03-30T00:01:11;4.30;94.50
9329;DHT22;4703;48.748;19.142;2023-03-30T00:03:40;4.30;94.50
9329;DHT22;4703;48.748;19.142;2023-03-30T00:06:12;4.30;94.30
9329;DHT22;4703;48.748;19.142;2023-03-30T00:08:47;4.30;94.40
9329;DHT22;4703;48.748;19.142;2023-03-30T00:11:15;4.30;94.60
9329;DHT22;4703;48.748;19.142;2023-03-30T00:13:43;4.20;94.80
9329;DHT22;4703;48.748;19.142;2023-03-30T00:16:13;4.20;94.80
9329;DHT22;4703;48.748;19.142;2023-03-30T00:18:40;4.20;94.70
9329;DHT22;4703;48.748;19.142;2023-03-30T00:21:07;4.20;94.90
9329;DHT22;4703;48.748;19.142;2023-03-30T00:23:38;4.10;95.30
9329;DHT22;4703;48.748;19.142;2023-03-30T00:26:05;6.10;96.70
9329;DHT22;4703;48.748;19.142;2023-03-30T00:28:33;4.10;95.60
9329;DHT22;4703;48.748;19.142;2023-03-30T00:31:00;4.10;95.50
9329;DHT22;4703;48.748;19.142;2023-03-30T00:33:28;4.00;95.80
9329;DHT22;4703;48.748;19.142;2023-03-30T00:36:11;4.00;95.80
9329;DHT22;4703;48.748;19.142;2023-03-30T00:38:38;4.00;96.10
9329;DHT22;4703;48.748;19.142;2023-03-30T00:41:06;5.80;97.20
9329;DHT22;4703;48.748;19.142;2023-03-30T00:43:33;4.10;96.40
9329;DHT22;4703;48.748;19.142;2023-03-30T00:46:00;4.00;96.10
9329;DHT22;4703;48.748;19.142;2023-03-30T00:48:33;4.00;95.90
9329;DHT22;4703;48.748;19.142;2023-03-30T00:51:07;4.00;95.80
9329;DHT22;4703;48.748;19.142;2023-03-30T00:53:40;6.10;96.60
9329;DHT22;4703;48.748;19.142;2023-03-30T00:56:12;4.00;95.90
9329;DHT22;4703;48.748;19.142;2023-03-30T00:58:41;4.00;95.90
9329;DHT22;4703;48.748;19.142;2023-03-30T01:01:11;4.00;96.00
9329;DHT22;4703;48.748;19.142;2023-03-30T01:03:46;4.00;96.20
9329;DHT22;4703;48.748;19.142;2023-03-30T01:06:14;4.00;96.30
9329;DHT22;4703;48.748;19.142;2023-03-30T01:08:53;4.00;96.30
9329;DHT22;4703;48.748;19.142;2023-03-30T01:11:20;5.50;97.10
9329;DHT22;4703;48.748;19.142;2023-03-30T01:13:52;4.00;96.80
9329;DHT22;4703;48.748;19.142;2023-03-30T01:19:36;4.30;97.10
9329;DHT22;4703;48.748;19.142;2023-03-30T01:45:08;3.80;96.70
9329;DHT22;4703;48.748;19.142;2023-03-30T01:51:08;3.80;97.00
9329;DHT22;4703;48.748;19.142;2023-03-30T01:54:06;3.80;97.20
9329;DHT22;4703;48.748;19.142;2023-03-30T01:56:45;3.80;97.50
9329;DHT22;4703;48.748;19.142;2023-03-30T01:59:34;3.80;97.50
9329;DHT22;4703;48.748;19.142;2023-03-30T02:02:17;3.80;97.50
9329;DHT22;4703;48.748;19.142;2023-03-30T02:04:47;3.70;97.60
9329;DHT22;4703;48.748;19.142;2023-03-30T02:07:21;3.80;97.60
9329;DHT22;4703;48.748;19.142;2023-03-30T02:09:50;6.90;98.80
9329;DHT22;4703;48.748;19.142;2023-03-30T02:12:20;3.90;97.40
9329;DHT22;4703;48.748;19.142;2023-03-30T02:14:48;3.80;97.40
9329;DHT22;4703;48.748;19.142;2023-03-30T02:17:22;3.90;97.50
9329;DHT22;4703;48.748;19.142;2023-03-30T02:19:50;3.90;97.60
9329;DHT22;4703;48.748;19.142;2023-03-30T02:22:18;4.50;97.90
9329;DHT22;4703;48.748;19.142;2023-03-30T02:24:47;3.80;97.50
9329;DHT22;4703;48.748;19.142;2023-03-30T02:27:15;3.90;97.40
9329;DHT22;4703;48.748;19.142;2023-03-30T02:29:44;6.90;99.20
9329;DHT22;4703;48.748;19.142;2023-03-30T02:32:27;3.90;98.20
9329;DHT22;4703;48.748;19.142;2023-03-30T02:38:39;3.90;98.00
9329;DHT22;4703;48.748;19.142;2023-03-30T02:41:19;5.10;98.60
9329;DHT22;4703;48.748;19.142;2023-03-30T02:51:11;3.80;98.20
9329;DHT22;4703;48.748;19.142;2023-03-30T02:57:12;3.80;98.60
9329;DHT22;4703;48.748;19.142;2023-03-30T02:59:53;3.80;98.60
9329;DHT22;4703;48.748;19.142;2023-03-30T03:02:29;3.70;98.40
9329;DHT22;4703;48.748;19.142;2023-03-30T03:05:00;3.70;98.30
9329;DHT22;4703;48.748;19.142;2023-03-30T03:07:30;3.70;98.10
9329;DHT22;4703;48.748;19.142;2023-03-30T03:10:00;3.70;98.00
9329;DHT22;4703;48.748;19.142;2023-03-30T03:12:27;3.60;97.90
9329;DHT22;4703;48.748;19.142;2023-03-30T03:14:57;3.70;97.90
9329;DHT22;4703;48.748;19.142;2023-03-30T03:17:24;6.00;98.90
9329;DHT22;4703;48.748;19.142;2023-03-30T03:20:01;3.70;97.90
9329;DHT22;4703;48.748;19.142;2023-03-30T03:22:30;3.70;98.00
9329;DHT22;4703;48.748;19.142;2023-03-30T03:24:57;3.80;98.10
9329;DHT22;4703;48.748;19.142;2023-03-30T03:27:24;3.70;98.30
9329;DHT22;4703;48.748;19.142;2023-03-30T03:29:51;3.70;98.50
9329;DHT22;4703;48.748;19.142;2023-03-30T03:32:18;6.40;99.90
9329;DHT22;4703;48.748;19.142;2023-03-30T03:34:45;3.70;98.80
9329;DHT22;4703;48.748;19.142;2023-03-30T03:37:12;3.60;98.60
9329;DHT22;4703;48.748;19.142;2023-03-30T03:39:40;3.60;98.70
9329;DHT22;4703;48.748;19.142;2023-03-30T03:42:07;3.60;98.50
9329;DHT22;4703;48.748;19.142;2023-03-30T03:44:34;3.50;98.40
9329;DHT22;4703;48.748;19.142;2023-03-30T03:47:03;5.40;99.00
9329;DHT22;4703;48.748;19.142;2023-03-30T03:49:30;3.60;97.80
9329;DHT22;4703;48.748;19.142;2023-03-30T03:51:57;3.60;97.70
9329;DHT22;4703;48.748;19.142;2023-03-30T03:54:24;6.60;99.10
9329;DHT22;4703;48.748;19.142;2023-03-30T03:56:51;3.60;97.60
9329;DHT22;4703;48.748;19.142;2023-03-30T03:59:18;3.60;97.80
9329;DHT22;4703;48.748;19.142;2023-03-30T04:01:45;3.60;97.80
9329;DHT22;4703;48.748;19.142;2023-03-30T04:04:12;3.60;97.80
9329;DHT22;4703;48.748;19.142;2023-03-30T04:06:39;3.70;97.70
9329;DHT22;4703;48.748;19.142;2023-03-30T04:09:06;3.70;97.60
9329;DHT22;4703;48.748;19.142;2023-03-30T04:11:33;3.70;97.50
9329;DHT22;4703;48.748;19.142;2023-03-30T04:14:00;5.00;98.20
9329;DHT22;4703;48.748;19.142;2023-03-30T04:16:27;3.70;97.70
9329;DHT22;4703;48.748;19.142;2023-03-30T04:18:54;3.70;97.80
9329;DHT22;4703;48.748;19.142;2023-03-30T04:21:23;3.60;97.80
9329;DHT22;4703;48.748;19.142;2023-03-30T04:23:50;6.50;99.10
9329;DHT22;4703;48.748;19.142;2023-03-30T04:26:19;3.60;98.00
9329;DHT22;4703;48.748;19.142;2023-03-30T04:28:46;3.40;98.00
9329;DHT22;4703;48.748;19.142;2023-03-30T04:31:13;3.50;98.30
9329;DHT22;4703;48.748;19.142;2023-03-30T04:33:41;3.50;98.60
9329;DHT22;4703;48.748;19.142;2023-03-30T04:36:19;3.50;99.00
9329;DHT22;4703;48.748;19.142;2023-03-30T04:38:46;3.50;99.30
9329;DHT22;4703;48.748;19.142;2023-03-30T04:41:30;3.50;99.30
9329;DHT22;4703;48.748;19.142;2023-03-30T04:44:03;3.50;99.30
9329;DHT22;4703;48.748;19.142;2023-03-30T04:46:31;4.30;99.70
9329;DHT22;4703;48.748;19.142;2023-03-30T04:48:59;6.50;99.90
9329;DHT22;4703;48.748;19.142;2023-03-30T04:51:26;3.50;99.60
9329;DHT22;4703;48.748;19.142;2023-03-30T04:53:54;3.50;99.50
9329;DHT22;4703;48.748;19.142;2023-03-30T04:56:21;3.50;99.50
9329;DHT22;4703;48.748;19.142;2023-03-30T04:58:48;3.40;99.60
9329;DHT22;4703;48.748;19.142;2023-03-30T05:01:15;3.50;99.70
9329;DHT22;4703;48.748;19.142;2023-03-30T05:03:42;3.50;99.90
9329;DHT22;4703;48.748;19.142;2023-03-30T05:06:09;3.50;99.80
9329;DHT22;4703;48.748;19.142;2023-03-30T05:08:37;3.50;99.90
9329;DHT22;4703;48.748;19.142;2023-03-30T05:11:07;3.50;99.90
9329;DHT22;4703;48.748;19.142;2023-03-30T05:13:34;3.50;99.90
9329;DHT22;4703;48.748;19.142;2023-03-30T05:16:01;3.60;99.90
9329;DHT22;4703;48.748;19.142;2023-03-30T05:18:28;3.60;99.90
9329;DHT22;4703;48.748;19.142;2023-03-30T05:20:56;3.70;99.90
9329;DHT22;4703;48.748;19.142;2023-03-30T05:23:24;3.60;99.70
9329;DHT22;4703;48.748;19.142;2023-03-30T05:25:54;3.70;99.90
9329;DHT22;4703;48.748;19.142;2023-03-30T05:28:21;3.70;99.90
9329;DHT22;4703;48.748;19.142;2023-03-30T05:30:53;3.70;99.80
9329;DHT22;4703;48.748;19.142;2023-03-30T05:33:21;3.60;99.60
9329;DHT22;4703;48.748;19.142;2023-03-30T05:35:48;3.70;99.70
9329;DHT22;4703;48.748;19.142;2023-03-30T05:38:15;3.70;99.80
9329;DHT22;4703;48.748;19.142;2023-03-30T05:40:42;3.80;99.90
9329;DHT22;4703;48.748;19.142;2023-03-30T05:43:10;3.90;99.90
9329;DHT22;4703;48.748;19.142;2023-03-30T05:45:37;3.90;99.80
9329;DHT22;4703;48.748;19.142;2023-03-30T05:48:05;3.90;99.80
9329;DHT22;4703;48.748;19.142;2023-03-30T05:50:32;4.00;99.50
9329;DHT22;4703;48.748;19.142;2023-03-30T05:53:00;4.00;99.60
9329;DHT22;4703;48.748;19.142;2023-03-30T05:55:27;4.20;99.70
9329;DHT22;4703;48.748;19.142;2023-03-30T05:57:54;4.20;99.40
9329;DHT22;4703;48.748;19.142;2023-03-30T06:00:22;4.20;99.30
9329;DHT22;4703;48.748;19.142;2023-03-30T06:02:49;6.00;99.80
9329;DHT22;4703;48.748;19.142;2023-03-30T06:05:17;4.30;99.20
9329;DHT22;4703;48.748;19.142;2023-03-30T06:07:45;4.40;98.90
9329;DHT22;4703;48.748;19.142;2023-03-30T06:10:12;4.30;98.70
9329;DHT22;4703;48.748;19.142;2023-03-30T06:12:39;4.30;98.30
9329;DHT22;4703;48.748;19.142;2023-03-30T06:15:06;4.40;98.10
9329;DHT22;4703;48.748;19.142;2023-03-30T06:17:35;4.50;98.00
9329;DHT22;4703;48.748;19.142;2023-03-30T06:20:03;4.50;97.90
9329;DHT22;4703;48.748;19.142;2023-03-30T06:22:38;4.50;97.70
9329;DHT22;4703;48.748;19.142;2023-03-30T06:25:07;4.60;97.30
9329;DHT22;4703;48.748;19.142;2023-03-30T06:27:35;4.60;97.10
9329;DHT22;4703;48.748;19.142;2023-03-30T06:30:03;4.60;97.30
9329;DHT22;4703;48.748;19.142;2023-03-30T06:32:31;4.70;97.60
9329;DHT22;4703;48.748;19.142;2023-03-30T06:34:58;4.70;97.70
9329;DHT22;4703;48.748;19.142;2023-03-30T06:37:25;4.80;97.50
9329;DHT22;4703;48.748;19.142;2023-03-30T06:39:52;4.90;97.30
9329;DHT22;4703;48.748;19.142;2023-03-30T06:42:19;5.00;96.90
9329;DHT22;4703;48.748;19.142;2023-03-30T06:44:46;5.10;96.50
9329;DHT22;4703;48.748;19.142;2023-03-30T06:47:15;5.10;96.10
9329;DHT22;4703;48.748;19.142;2023-03-30T06:49:42;7.60;96.60
9329;DHT22;4703;48.748;19.142;2023-03-30T06:52:09;5.20;95.60
9329;DHT22;4703;48.748;19.142;2023-03-30T06:54:38;5.20;96.00
9329;DHT22;4703;48.748;19.142;2023-03-30T06:57:05;5.30;96.00
9329;DHT22;4703;48.748;19.142;2023-03-30T06:59:33;7.60;97.40
9329;DHT22;4703;48.748;19.142;2023-03-30T07:02:00;5.50;96.20
9329;DHT22;4703;48.748;19.142;2023-03-30T07:04:29;5.50;96.00
9329;DHT22;4703;48.748;19.142;2023-03-30T07:06:56;5.50;95.70
9329;DHT22;4703;48.748;19.142;2023-03-30T07:09:24;5.60;95.40
9329;DHT22;4703;48.748;19.142;2023-03-30T07:11:51;5.60;95.70
9329;DHT22;4703;48.748;19.142;2023-03-30T07:14:21;7.10;96.50
9329;DHT22;4703;48.748;19.142;2023-03-30T07:16:48;5.70;95.10
9329;DHT22;4703;48.748;19.142;2023-03-30T07:19:16;5.70;94.80
9329;DHT22;4703;48.748;19.142;2023-03-30T07:21:43;8.70;96.20
9329;DHT22;4703;48.748;19.142;2023-03-30T07:24:11;5.90;94.70
9329;DHT22;4703;48.748;19.142;2023-03-30T07:26:37;8.60;95.90
9329;DHT22;4703;48.748;19.142;2023-03-30T07:29:04;6.00;94.80
9329;DHT22;4703;48.748;19.142;2023-03-30T07:31:32;6.10;94.90
9329;DHT22;4703;48.748;19.142;2023-03-30T07:33:59;6.10;94.80
9329;DHT22;4703;48.748;19.142;2023-03-30T07:36:26;6.20;93.90
9329;DHT22;4703;48.748;19.142;2023-03-30T07:38:53;6.30;93.20
9329;DHT22;4703;48.748;19.142;2023-03-30T07:41:21;6.30;92.90
9329;DHT22;4703;48.748;19.142;2023-03-30T07:43:48;6.30;92.70
9329;DHT22;4703;48.748;19.142;2023-03-30T07:46:15;6.30;92.50
9329;DHT22;4703;48.748;19.142;2023-03-30T07:48:42;9.00;93.10
9329;DHT22;4703;48.748;19.142;2023-03-30T07:51:11;6.90;92.60
9329;DHT22;4703;48.748;19.142;2023-03-30T07:53:39;6.30;92.70
9329;DHT22;4703;48.748;19.142;2023-03-30T07:56:06;8.10;93.90
9329;DHT22;4703;48.748;19.142;2023-03-30T07:58:33;6.40;93.30
9329;DHT22;4703;48.748;19.142;2023-03-30T08:01:00;8.60;94.00
9329;DHT22;4703;48.748;19.142;2023-03-30T08:03:29;6.40;92.30
9329;DHT22;4703;48.748;19.142;2023-03-30T08:06:00;6.50;92.20
9329;DHT22;4703;48.748;19.142;2023-03-30T08:08:31;6.50;92.30
9329;DHT22;4703;48.748;19.142;2023-03-30T08:10:59;6.60;92.10
9329;DHT22;4703;48.748;19.142;2023-03-30T08:13:26;6.60;92.00
9329;DHT22;4703;48.748;19.142;2023-03-30T08:15:53;6.60;91.70
9329;DHT22;4703;48.748;19.142;2023-03-30T08:18:20;6.60;91.90
9329;DHT22;4703;48.748;19.142;2023-03-30T08:20:50;9.00;93.20
9329;DHT22;4703;48.748;19.142;2023-03-30T08:23:19;6.80;92.10
9329;DHT22;4703;48.748;19.142;2023-03-30T08:25:47;6.90;91.80
9329;DHT22;4703;48.748;19.142;2023-03-30T08:28:19;6.90;92.10
9329;DHT22;4703;48.748;19.142;2023-03-30T08:30:46;7.00;91.90
9329;DHT22;4703;48.748;19.142;2023-03-30T08:33:14;7.10;90.70
9329;DHT22;4703;48.748;19.142;2023-03-30T08:35:46;7.10;90.20
9329;DHT22;4703;48.748;19.142;2023-03-30T08:38:14;9.30;91.30
9329;DHT22;4703;48.748;19.142;2023-03-30T08:40:46;7.00;90.70
9329;DHT22;4703;48.748;19.142;2023-03-30T08:46:14;8.00;91.00
9329;DHT22;4703;48.748;19.142;2023-03-30T08:48:43;7.10;90.50
9329;DHT22;4703;48.748;19.142;2023-03-30T08:51:28;7.10;90.30
9329;DHT22;4703;48.748;19.142;2023-03-30T08:53:58;7.10;90.80
9329;DHT22;4703;48.748;19.142;2023-03-30T08:56:38;7.10;91.00
9329;DHT22;4703;48.748;19.142;2023-03-30T08:59:31;7.10;90.60
9329;DHT22;4703;48.748;19.142;2023-03-30T09:02:21;7.10;90.30
9329;DHT22;4703;48.748;19.142;2023-03-30T09:08:13;7.00;90.10
9329;DHT22;4703;48.748;19.142;2023-03-30T09:10:47;8.70;91.30
9329;DHT22;4703;48.748;19.142;2023-03-30T09:13:20;7.00;90.70
9329;DHT22;4703;48.748;19.142;2023-03-30T09:15:56;9.80;91.60
9329;DHT22;4703;48.748;19.142;2023-03-30T09:18:36;8.80;91.20
9329;DHT22;4703;48.748;19.142;2023-03-30T09:21:07;6.90;90.50
9329;DHT22;4703;48.748;19.142;2023-03-30T09:23:36;6.90;91.00
9329;DHT22;4703;48.748;19.142;2023-03-30T09:26:44;6.80;91.10
9329;DHT22;4703;48.748;19.142;2023-03-30T09:29:25;6.80;91.90
9329;DHT22;4703;48.748;19.142;2023-03-30T09:37:26;6.90;93.60
9329;DHT22;4703;48.748;19.142;2023-03-30T09:39:53;6.90;93.60
9329;DHT22;4703;48.748;19.142;2023-03-30T09:42:35;6.90;93.90
9329;DHT22;4703;48.748;19.142;2023-03-30T09:47:53;6.90;94.70
9329;DHT22;4703;48.748;19.142;2023-03-30T09:50:23;7.00;94.00
9329;DHT22;4703;48.748;19.142;2023-03-30T09:52:59;7.00;94.30
9329;DHT22;4703;48.748;19.142;2023-03-30T09:55:34;7.00;94.60
9329;DHT22;4703;48.748;19.142;2023-03-30T09:58:18;7.10;94.60
9329;DHT22;4703;48.748;19.142;2023-03-30T10:01:08;7.20;95.20
9329;DHT22;4703;48.748;19.142;2023-03-30T10:03:42;7.20;95.80
9329;DHT22;4703;48.748;19.142;2023-03-30T10:06:16;7.30;95.70
9329;DHT22;4703;48.748;19.142;2023-03-30T10:08:52;7.50;95.80
9329;DHT22;4703;48.748;19.142;2023-03-30T10:11:39;7.60;96.40
9329;DHT22;4703;48.748;19.142;2023-03-30T10:14:30;7.70;96.50
9329;DHT22;4703;48.748;19.142;2023-03-30T10:16:59;8.00;96.10
9329;DHT22;4703;48.748;19.142;2023-03-30T10:19:28;8.70;96.80
9329;DHT22;4703;48.748;19.142;2023-03-30T10:21:57;8.50;95.90
9329;DHT22;4703;48.748;19.142;2023-03-30T10:24:32;9.90;96.50
9329;DHT22;4703;48.748;19.142;2023-03-30T10:29:44;11.40;95.00
9329;DHT22;4703;48.748;19.142;2023-03-30T10:32:43;9.60;94.60
9329;DHT22;4703;48.748;19.142;2023-03-30T10:35:17;12.30;94.70
9329;DHT22;4703;48.748;19.142;2023-03-30T10:37:49;10.00;93.20
9329;DHT22;4703;48.748;19.142;2023-03-30T10:40:22;10.00;93.10
9329;DHT22;4703;48.748;19.142;2023-03-30T10:43:05;11.60;92.90
9329;DHT22;4703;48.748;19.142;2023-03-30T10:45:47;10.00;91.80
9329;DHT22;4703;48.748;19.142;2023-03-30T10:48:28;10.70;92.70
9329;DHT22;4703;48.748;19.142;2023-03-30T10:57:18;10.10;91.60
9329;DHT22;4703;48.748;19.142;2023-03-30T11:02:57;10.20;91.80
9329;DHT22;4703;48.748;19.142;2023-03-30T11:05:33;10.20;91.60
9329;DHT22;4703;48.748;19.142;2023-03-30T11:08:05;10.10;91.60
9329;DHT22;4703;48.748;19.142;2023-03-30T11:10:40;11.50;92.10
9329;DHT22;4703;48.748;19.142;2023-03-30T11:13:27;11.10;91.60
9329;DHT22;4703;48.748;19.142;2023-03-30T11:16:09;10.00;91.20
9329;DHT22;4703;48.748;19.142;2023-03-30T11:19:06;9.90;91.40
9329;DHT22;4703;48.748;19.142;2023-03-30T11:22:34;9.90;91.30
9329;DHT22;4703;48.748;19.142;2023-03-30T11:24:47;9.90;91.50
9329;DHT22;4703;48.748;19.142;2023-03-30T11:27:21;9.80;91.50
9329;DHT22;4703;48.748;19.142;2023-03-30T11:33:01;9.70;91.50
9329;DHT22;4703;48.748;19.142;2023-03-30T11:38:23;9.60;91.40
9329;DHT22;4703;48.748;19.142;2023-03-30T11:41:10;9.50;91.10
9329;DHT22;4703;48.748;19.142;2023-03-30T11:43:40;9.40;91.20
9329;DHT22;4703;48.748;19.142;2023-03-30T11:46:08;11.40;91.90
9329;DHT22;4703;48.748;19.142;2023-03-30T11:51:58;9.40;91.30
9329;DHT22;4703;48.748;19.142;2023-03-30T11:54:38;9.40;91.70
9329;DHT22;4703;48.748;19.142;2023-03-30T12:00:41;9.40;91.70
9329;DHT22;4703;48.748;19.142;2023-03-30T12:09:05;9.50;91.90
9329;DHT22;4703;48.748;19.142;2023-03-30T12:14:43;9.50;91.40
9329;DHT22;4703;48.748;19.142;2023-03-30T12:20:16;9.60;91.80
9329;DHT22;4703;48.748;19.142;2023-03-30T12:26:09;9.80;92.10
9329;DHT22;4703;48.748;19.142;2023-03-30T12:34:23;9.60;92.50
9329;DHT22;4703;48.748;19.142;2023-03-30T12:39:34;9.70;92.00
9329;DHT22;4703;48.748;19.142;2023-03-30T12:42:35;9.70;91.90
9329;DHT22;4703;48.748;19.142;2023-03-30T12:51:02;9.70;92.10
9329;DHT22;4703;48.748;19.142;2023-03-30T12:54:00;9.80;92.10
9329;DHT22;4703;48.748;19.142;2023-03-30T13:02:51;9.80;91.80
9329;DHT22;4703;48.748;19.142;2023-03-30T13:05:32;9.90;92.30
9329;DHT22;4703;48.748;19.142;2023-03-30T13:08:03;10.10;91.40
9329;DHT22;4703;48.748;19.142;2023-03-30T13:10:38;11.60;92.00
9329;DHT22;4703;48.748;19.142;2023-03-30T13:13:23;10.40;90.50
9329;DHT22;4703;48.748;19.142;2023-03-30T13:16:12;10.50;89.80
9329;DHT22;4703;48.748;19.142;2023-03-30T13:19:08;12.60;91.30
9329;DHT22;4703;48.748;19.142;2023-03-30T13:21:54;10.90;90.10
9329;DHT22;4703;48.748;19.142;2023-03-30T13:29:41;11.20;90.20
9329;DHT22;4703;48.748;19.142;2023-03-30T13:41:03;11.80;85.80
9329;DHT22;4703;48.748;19.142;2023-03-30T13:52:10;12.20;82.60
9329;DHT22;4703;48.748;19.142;2023-03-30T13:54:40;12.20;81.60
9329;DHT22;4703;48.748;19.142;2023-03-30T13:57:10;12.30;81.10
9329;DHT22;4703;48.748;19.142;2023-03-30T14:00:06;12.80;82.50
9329;DHT22;4703;48.748;19.142;2023-03-30T14:02:42;12.70;82.30
9329;DHT22;4703;48.748;19.142;2023-03-30T14:05:18;12.90;81.20
9329;DHT22;4703;48.748;19.142;2023-03-30T14:07:47;13.00;82.30
9329;DHT22;4703;48.748;19.142;2023-03-30T14:10:19;13.30;79.80
9329;DHT22;4703;48.748;19.142;2023-03-30T14:12:49;13.00;78.60
9329;DHT22;4703;48.748;19.142;2023-03-30T14:15:31;13.50;80.50
9329;DHT22;4703;48.748;19.142;2023-03-30T14:18:01;12.80;78.90
9329;DHT22;4703;48.748;19.142;2023-03-30T14:20:51;14.20;80.30
9329;DHT22;4703;48.748;19.142;2023-03-30T14:23:33;12.40;78.50
9329;DHT22;4703;48.748;19.142;2023-03-30T14:26:21;12.20;79.10
9329;DHT22;4703;48.748;19.142;2023-03-30T14:29:02;12.00;79.00
9329;DHT22;4703;48.748;19.142;2023-03-30T14:31:38;11.70;79.50
9329;DHT22;4703;48.748;19.142;2023-03-30T14:37:02;11.30;81.00
9329;DHT22;4703;48.748;19.142;2023-03-30T14:39:34;11.20;80.70
9329;DHT22;4703;48.748;19.142;2023-03-30T14:42:17;12.50;84.10
9329;DHT22;4703;48.748;19.142;2023-03-30T14:44:49;10.90;84.00
9329;DHT22;4703;48.748;19.142;2023-03-30T14:47:20;10.90;85.30
9329;DHT22;4703;48.748;19.142;2023-03-30T14:49:51;11.90;87.40
9329;DHT22;4703;48.748;19.142;2023-03-30T14:52:36;11.20;88.30
9329;DHT22;4703;48.748;19.142;2023-03-30T14:55:06;10.60;87.50
9329;DHT22;4703;48.748;19.142;2023-03-30T14:57:41;10.50;87.80
9329;DHT22;4703;48.748;19.142;2023-03-30T15:00:15;10.30;88.40
9329;DHT22;4703;48.748;19.142;2023-03-30T15:02:49;10.30;90.00
9329;DHT22;4703;48.748;19.142;2023-03-30T15:05:21;10.40;90.50
9329;DHT22;4703;48.748;19.142;2023-03-30T15:07:51;11.90;91.60
9329;DHT22;4703;48.748;19.142;2023-03-30T15:10:23;11.80;92.50
9329;DHT22;4703;48.748;19.142;2023-03-30T15:12:52;9.90;93.80
9329;DHT22;4703;48.748;19.142;2023-03-30T15:15:25;11.30;94.10
9329;DHT22;4703;48.748;19.142;2023-03-30T15:17:55;11.00;94.70
9329;DHT22;4703;48.748;19.142;2023-03-30T15:20:27;11.90;95.80
9329;DHT22;4703;48.748;19.142;2023-03-30T15:22:55;11.20;96.90
9329;DHT22;4703;48.748;19.142;2023-03-30T15:25:41;11.90;98.00
9329;DHT22;4703;48.748;19.142;2023-03-30T15:28:18;11.10;98.30
9329;DHT22;4703;48.748;19.142;2023-03-30T15:30:51;10.30;98.70
9329;DHT22;4703;48.748;19.142;2023-03-30T15:33:34;9.60;99.90
9329;DHT22;4703;48.748;19.142;2023-03-30T15:36:06;10.00;99.90
9329;DHT22;4703;48.748;19.142;2023-03-30T15:38:47;9.40;99.90
9329;DHT22;4703;48.748;19.142;2023-03-30T15:41:15;9.30;99.90
9329;DHT22;4703;48.748;19.142;2023-03-30T15:43:58;11.40;99.90
9329;DHT22;4703;48.748;19.142;2023-03-30T15:46:36;9.20;99.90
9329;DHT22;4703;48.748;19.142;2023-03-30T15:49:04;10.20;99.90
9329;DHT22;4703;48.748;19.142;2023-03-30T15:51:38;8.10;99.90
9329;DHT22;4703;48.748;19.142;2023-03-30T15:54:20;9.10;99.90
9329;DHT22;4703;48.748;19.142;2023-03-30T15:57:05;9.10;99.90
9329;DHT22;4703;48.748;19.142;2023-03-30T16:00:02;9.00;99.90
9329;DHT22;4703;48.748;19.142;2023-03-30T16:02:45;8.90;99.90
9329;DHT22;4703;48.748;19.142;2023-03-30T16:05:27;8.90;99.90
9329;DHT22;4703;48.748;19.142;2023-03-30T16:07:56;11.20;99.90
9329;DHT22;4703;48.748;19.142;2023-03-30T16:10:28;10.90;99.90
9329;DHT22;4703;48.748;19.142;2023-03-30T16:12:58;8.70;99.90
9329;DHT22;4703;48.748;19.142;2023-03-30T16:15:28;9.80;99.90
9329;DHT22;4703;48.748;19.142;2023-03-30T16:18:00;8.60;99.90
9329;DHT22;4703;48.748;19.142;2023-03-30T16:20:29;10.70;99.90
9329;DHT22;4703;48.748;19.142;2023-03-30T16:22:58;8.50;99.90
9329;DHT22;4703;48.748;19.142;2023-03-30T16:25:26;9.50;99.90
9329;DHT22;4703;48.748;19.142;2023-03-30T16:28:14;9.60;99.90
9329;DHT22;4703;48.748;19.142;2023-03-30T16:30:45;10.20;99.90
9329;DHT22;4703;48.748;19.142;2023-03-30T16:33:12;8.40;99.90
9329;DHT22;4703;48.748;19.142;2023-03-30T16:35:39;8.40;99.90
9329;DHT22;4703;48.748;19.142;2023-03-30T16:38:12;10.40;99.90
9329;DHT22;4703;48.748;19.142;2023-03-30T16:40:46;10.00;99.90
9329;DHT22;4703;48.748;19.142;2023-03-30T16:43:16;8.20;99.90
9329;DHT22;4703;48.748;19.142;2023-03-30T16:45:43;8.20;99.90
9329;DHT22;4703;48.748;19.142;2023-03-30T16:48:12;8.10;99.90
9329;DHT22;4703;48.748;19.142;2023-03-30T16:50:45;10.90;99.90
9329;DHT22;4703;48.748;19.142;2023-03-30T16:53:16;8.10;99.90
9329;DHT22;4703;48.748;19.142;2023-03-30T16:55:43;9.50;99.90
9329;DHT22;4703;48.748;19.142;2023-03-30T16:58:12;8.00;99.90
9329;DHT22;4703;48.748;19.142;2023-03-30T17:00:43;10.70;99.90
9329;DHT22;4703;48.748;19.142;2023-03-30T17:03:11;8.30;99.90
9329;DHT22;4703;48.748;19.142;2023-03-30T17:05:39;8.70;99.90
9329;DHT22;4703;48.748;19.142;2023-03-30T17:10:50;8.00;99.90
9329;DHT22;4703;48.748;19.142;2023-03-30T17:13:18;8.00;99.90
9329;DHT22;4703;48.748;19.142;2023-03-30T17:15:45;8.50;99.90
9329;DHT22;4703;48.748;19.142;2023-03-30T17:18:18;7.90;99.90
9329;DHT22;4703;48.748;19.142;2023-03-30T17:20:48;7.90;99.90
9329;DHT22;4703;48.748;19.142;2023-03-30T17:23:23;7.90;99.90
9329;DHT22;4703;48.748;19.142;2023-03-30T17:25:53;10.20;99.90
9329;DHT22;4703;48.748;19.142;2023-03-30T17:28:29;9.50;99.90
9329;DHT22;4703;48.748;19.142;2023-03-30T17:30:59;7.80;99.90
9329;DHT22;4703;48.748;19.142;2023-03-30T17:33:28;10.00;99.90
9329;DHT22;4703;48.748;19.142;2023-03-30T17:36:03;7.70;99.90
9329;DHT22;4703;48.748;19.142;2023-03-30T17:38:33;10.50;99.90
9329;DHT22;4703;48.748;19.142;2023-03-30T17:41:00;9.70;99.90
9329;DHT22;4703;48.748;19.142;2023-03-30T17:43:27;5.30;99.90
9329;DHT22;4703;48.748;19.142;2023-03-30T17:45:54;7.70;99.90
9329;DHT22;4703;48.748;19.142;2023-03-30T17:48:21;7.70;99.90
9329;DHT22;4703;48.748;19.142;2023-03-30T17:50:49;7.70;99.90
9329;DHT22;4703;48.748;19.142;2023-03-30T17:53:17;7.70;99.90
9329;DHT22;4703;48.748;19.142;2023-03-30T17:55:50;7.60;99.90
9329;DHT22;4703;48.748;19.142;2023-03-30T17:58:21;7.60;99.90
9329;DHT22;4703;48.748;19.142;2023-03-30T18:00:54;8.70;99.90
9329;DHT22;4703;48.748;19.142;2023-03-30T18:03:22;7.60;99.90
9329;DHT22;4703;48.748;19.142;2023-03-30T18:05:51;7.60;99.90
9329;DHT22;4703;48.748;19.142;2023-03-30T18:08:20;7.50;99.90
9329;DHT22;4703;48.748;19.142;2023-03-30T18:10:54;9.40;99.90
9329;DHT22;4703;48.748;19.142;2023-03-30T18:13:23;7.40;99.90
9329;DHT22;4703;48.748;19.142;2023-03-30T18:15:52;7.50;99.90
9329;DHT22;4703;48.748;19.142;2023-03-30T18:18:26;9.40;99.90
9329;DHT22;4703;48.748;19.142;2023-03-30T18:20:59;7.50;99.90
9329;DHT22;4703;48.748;19.142;2023-03-30T18:23:32;7.50;99.90
9329;DHT22;4703;48.748;19.142;2023-03-30T18:26:01;8.50;99.90
9329;DHT22;4703;48.748;19.142;2023-03-30T18:28:34;9.00;99.90
9329;DHT22;4703;48.748;19.142;2023-03-30T18:31:04;9.10;99.90
9329;DHT22;4703;48.748;19.142;2023-03-30T18:33:32;9.30;99.90
9329;DHT22;4703;48.748;19.142;2023-03-30T18:35:59;7.40;99.90
9329;DHT22;4703;48.748;19.142;2023-03-30T18:38:31;7.40;99.90
9329;DHT22;4703;48.748;19.142;2023-03-30T18:40:59;7.40;99.90
9329;DHT22;4703;48.748;19.142;2023-03-30T18:43:27;7.30;99.90
9329;DHT22;4703;48.748;19.142;2023-03-30T18:45:54;7.30;99.90
9329;DHT22;4703;48.748;19.142;2023-03-30T18:48:27;7.30;99.90
9329;DHT22;4703;48.748;19.142;2023-03-30T18:50:55;8.70;99.90
9329;DHT22;4703;48.748;19.142;2023-03-30T18:53:24;7.30;99.90
9329;DHT22;4703;48.748;19.142;2023-03-30T18:55:57;7.30;99.90
9329;DHT22;4703;48.748;19.142;2023-03-30T18:58:28;7.30;99.90